Time;durP1;ratioP1;P1;durP2;ratioP2;P2;SDS_P1;SDS_P2;PMS_P1;PMS_P2;Temp;Humidity;BMP_temperature;BMP_pressure;BME280_temperature;BME280_humidity;BME280_pressure;Samples;Min_cycle;Max_cycle;Signal;HPM_P1;HPM_P2
2023/08/08 00:01:17;;;;;;;5.00;2.40;;;;;;;15.15;76.27;101250.16;3616495;39;20065;-66
2023/08/08 00:03:43;;;;;;;6.03;2.42;;;;;;;15.14;76.66;101243.03;3613387;39;20061;-66
2023/08/08 00:06:09;;;;;;;4.32;2.67;;;;;;;15.12;77.08;101245.81;3611899;39;20215;-66
2023/08/08 00:08:34;;;;;;;4.13;2.38;;;;;;;15.11;76.87;101241.41;3613864;39;20055;-66
2023/08/08 00:11:00;;;;;;;4.68;2.38;;;;;;;15.09;77.35;101244.19;3616144;39;20080;-66
2023/08/08 00:13:26;;;;;;;3.08;2.42;;;;;;;15.09;77.06;101248.75;3617308;39;20062;-66
2023/08/08 00:15:51;;;;;;;5.93;2.38;;;;;;;15.09;77.57;101249.63;3614061;39;20057;-66
2023/08/08 00:18:17;;;;;;;4.13;2.10;;;;;;;15.08;77.34;101252.44;3614278;39;20051;-66
2023/08/08 00:20:42;;;;;;;5.03;2.70;;;;;;;15.08;77.68;101249.75;3615257;39;20301;-66
2023/08/08 00:23:08;;;;;;;5.85;2.40;;;;;;;15.05;77.56;101242.72;3612096;39;20433;-66
2023/08/08 00:25:34;;;;;;;5.00;2.53;;;;;;;15.14;77.81;101248.44;3614635;39;20051;-66
2023/08/08 00:27:59;;;;;;;4.85;2.53;;;;;;;15.17;77.55;101251.78;3614204;39;20078;-66
2023/08/08 00:30:25;;;;;;;4.53;2.42;;;;;;;15.21;77.83;101249.69;3615842;39;20065;-66
2023/08/08 00:32:50;;;;;;;4.35;2.60;;;;;;;15.23;76.96;101247.75;3617007;39;20053;-66
2023/08/08 00:35:16;;;;;;;5.90;2.50;;;;;;;15.08;76.93;101223.53;3615624;39;20058;-66
2023/08/08 00:37:42;;;;;;;3.78;2.63;;;;;;;15.25;76.57;101245.78;3621087;39;20046;-65
2023/08/08 00:40:08;;;;;;;5.13;2.42;;;;;;;15.26;76.95;101232.13;3614366;39;20066;-66
2023/08/08 00:42:34;;;;;;;3.88;2.63;;;;;;;15.27;76.87;101236.56;3616947;39;20055;-66
2023/08/08 00:45:03;;;;;;;4.15;2.53;;;;;;;15.28;76.53;101232.84;3617503;39;20120;-66
2023/08/08 00:47:34;;;;;;;7.93;2.60;;;;;;;15.24;76.71;101222.38;3616222;39;20039;-66
2023/08/08 00:50:02;;;;;;;4.80;2.70;;;;;;;15.28;76.89;101223.88;3614553;39;20204;-67
2023/08/08 00:52:28;;;;;;;5.53;2.53;;;;;;;15.29;76.53;101236.47;3616077;39;20098;-66
2023/08/08 00:54:55;;;;;;;5.32;2.63;;;;;;;15.28;76.82;101232.84;3612868;39;20413;-66
2023/08/08 00:57:21;;;;;;;6.30;2.70;;;;;;;15.17;77.13;101199.47;3613336;39;20053;-66
2023/08/08 00:59:47;;;;;;;4.95;2.53;;;;;;;15.30;77.32;101217.38;3616569;39;20329;-66
2023/08/08 01:02:13;;;;;;;5.43;2.30;;;;;;;15.31;77.32;101223.66;3615859;39;20099;-66
2023/08/08 01:04:39;;;;;;;5.60;2.70;;;;;;;15.28;77.15;101223.88;3612964;39;20065;-65
2023/08/08 01:07:15;;;;;;;5.97;2.78;;;;;;;15.30;76.91;101227.34;3614970;39;20055;-66
2023/08/08 01:09:57;;;;;;;6.00;2.80;;;;;;;15.29;77.26;101228.34;3614045;39;20082;-65
2023/08/08 01:12:26;;;;;;;5.15;2.80;;;;;;;15.31;77.09;101239.91;3610548;39;20123;-66
2023/08/08 01:14:54;;;;;;;4.20;2.55;;;;;;;15.32;77.63;101230.81;3614324;39;20054;-66
2023/08/08 01:17:22;;;;;;;4.38;2.50;;;;;;;15.33;77.71;101227.13;3606792;39;20065;-65
2023/08/08 01:19:49;;;;;;;5.03;2.50;;;;;;;15.34;77.58;101223.41;3615079;39;20302;-66
2023/08/08 01:22:35;;;;;;;4.85;2.65;;;;;;;15.36;77.87;101221.47;3616106;39;20370;-66
2023/08/08 01:25:02;;;;;;;4.93;2.80;;;;;;;15.39;77.53;101215.81;3615334;39;20110;-66
2023/08/08 01:27:29;;;;;;;7.63;3.10;;;;;;;15.40;77.45;101217.53;3616784;39;20074;-65
2023/08/08 01:29:55;;;;;;;4.40;2.80;;;;;;;15.41;77.44;101223.81;3617473;39;20055;-65
2023/08/08 01:32:20;;;;;;;4.88;2.95;;;;;;;15.39;78.26;101217.66;3616800;39;20369;-66
2023/08/08 01:34:46;;;;;;;9.57;3.03;;;;;;;15.36;78.18;101226.88;3614292;39;20054;-66
2023/08/08 01:37:28;;;;;;;5.65;3.05;;;;;;;15.39;78.48;101231.22;3606224;39;20114;-66
2023/08/08 01:39:59;;;;;;;6.30;2.60;;;;;;;15.39;78.62;101226.66;3612127;39;20095;-66
2023/08/08 01:42:26;;;;;;;5.57;2.60;;;;;;;15.40;78.01;101217.53;3614005;39;20066;-66
2023/08/08 01:44:55;;;;;;;4.72;2.92;;;;;;;15.22;78.12;101191.84;3614437;39;20111;-66
2023/08/08 01:47:21;;;;;;;5.47;3.13;;;;;;;15.40;78.40;101216.69;3613925;39;20053;-65
2023/08/08 01:49:46;;;;;;;8.15;3.08;;;;;;;15.38;78.92;101219.50;3614698;39;20051;-66
2023/08/08 01:52:12;;;;;;;6.45;2.50;;;;;;;15.36;78.91;101205.22;3615688;39;20066;-65
2023/08/08 01:54:38;;;;;;;6.00;2.80;;;;;;;15.35;78.73;101214.31;3613494;39;20051;-67
2023/08/08 01:57:04;;;;;;;5.60;2.80;;;;;;;15.34;79.01;101212.56;3615914;39;20078;-66
2023/08/08 01:59:29;;;;;;;6.72;3.05;;;;;;;15.32;79.03;101204.59;3613963;39;20174;-66
2023/08/08 02:01:55;;;;;;;3.70;2.60;;;;;;;15.29;78.96;101198.53;3614272;39;20050;-67
2023/08/08 02:04:21;;;;;;;6.32;2.97;;;;;;;15.29;78.79;101198.53;3618151;39;20121;-66
2023/08/08 02:06:46;;;;;;;7.78;3.33;;;;;;;15.24;79.92;101198.00;3615649;39;20370;-66
2023/08/08 02:09:14;;;;;;;6.53;3.58;;;;;;;15.17;80.07;101197.59;3613325;39;20479;-66
2023/08/08 02:11:40;;;;;;;5.78;2.83;;;;;;;15.15;80.88;101196.00;3614894;39;20151;-66
2023/08/08 02:14:06;;;;;;;7.05;3.00;;;;;;;15.11;80.03;101186.38;3614955;39;20067;-66
2023/08/08 02:16:31;;;;;;;8.73;3.17;;;;;;;15.04;80.95;101185.97;3613679;39;20057;-67
2023/08/08 02:18:57;;;;;;;7.95;3.30;;;;;;;14.98;81.04;101190.00;3616833;39;20069;-67
2023/08/08 02:21:23;;;;;;;5.70;2.95;;;;;;;14.96;81.60;101183.81;3614560;39;20271;-66
2023/08/08 02:23:48;;;;;;;6.85;3.33;;;;;;;14.94;82.18;101188.50;3614037;39;20054;-66
2023/08/08 02:26:14;;;;;;;6.10;3.20;;;;;;;14.91;82.02;101186.03;3614552;39;20070;-66
2023/08/08 02:28:41;;;;;;;9.15;3.45;;;;;;;14.90;82.58;101187.00;3614389;39;20047;-66
2023/08/08 02:31:06;;;;;;;8.68;3.28;;;;;;;14.89;83.13;101185.28;3613274;39;20361;-66
2023/08/08 02:33:32;;;;;;;7.47;3.47;;;;;;;14.89;82.63;101177.16;3617363;39;20070;-66
2023/08/08 02:35:57;;;;;;;6.57;3.30;;;;;;;14.91;83.58;101172.50;3614953;39;20077;-66
2023/08/08 02:38:23;;;;;;;7.68;4.13;;;;;;;14.92;82.63;101163.38;3616447;39;20092;-66
2023/08/08 02:40:48;;;;;;;9.15;3.30;;;;;;;14.92;83.67;101174.22;3617546;39;20060;-66
2023/08/08 02:43:14;;;;;;;5.00;3.00;;;;;;;14.93;83.24;101165.09;3613900;39;20047;-66
2023/08/08 02:45:40;;;;;;;6.70;3.75;;;;;;;14.92;83.74;101167.94;3614311;39;20345;-66
2023/08/08 02:48:06;;;;;;;8.82;3.35;;;;;;;14.88;83.28;101156.47;3609891;39;20309;-67
2023/08/08 02:50:31;;;;;;;10.80;3.38;;;;;;;14.93;83.48;101159.69;3613238;39;20058;-66
2023/08/08 02:52:57;;;;;;;7.70;3.80;;;;;;;14.93;83.91;101162.41;3613336;39;20074;-66
2023/08/08 02:55:22;;;;;;;6.32;3.38;;;;;;;14.93;84.30;101159.69;3613964;39;20415;-66
2023/08/08 02:57:48;;;;;;;8.95;3.90;;;;;;;14.92;84.12;101154.41;3613327;39;20302;-66
2023/08/08 03:00:14;;;;;;;9.60;4.05;;;;;;;14.92;84.24;101151.69;3614329;39;20058;-66
2023/08/08 03:02:39;;;;;;;11.30;3.70;;;;;;;14.91;84.83;101160.81;3613726;39;20368;-67
2023/08/08 03:05:06;;;;;;;7.72;3.97;;;;;;;14.89;85.54;101158.19;3615400;39;20062;-67
2023/08/08 03:07:31;;;;;;;6.28;3.58;;;;;;;14.89;85.05;101160.91;3612926;39;20050;-67
2023/08/08 03:09:57;;;;;;;8.75;3.85;;;;;;;14.88;85.54;101156.47;3614724;39;20071;-66
2023/08/08 03:12:22;;;;;;;8.75;3.83;;;;;;;14.88;85.83;101161.91;3614244;39;20063;-66
2023/08/08 03:14:48;;;;;;;9.10;3.95;;;;;;;14.85;86.23;101159.41;3614634;39;20094;-66
2023/08/08 03:17:14;;;;;;;11.50;4.15;;;;;;;14.86;85.82;101163.84;3613983;39;20390;-66
2023/08/08 03:19:39;;;;;;;7.90;3.72;;;;;;;14.86;86.11;101169.25;3613427;39;20050;-66
2023/08/08 03:22:05;;;;;;;9.20;4.55;;;;;;;14.87;85.99;101152.03;3613903;39;20054;-66
2023/08/08 03:24:31;;;;;;;10.85;3.95;;;;;;;14.90;86.50;101153.66;3613078;39;20046;-66
2023/08/08 03:26:56;;;;;;;7.97;4.20;;;;;;;14.90;86.66;101159.06;3614832;39;20539;-66
2023/08/08 03:29:22;;;;;;;7.90;4.20;;;;;;;14.90;86.78;101143.69;3611434;39;20054;-66
2023/08/08 03:31:47;;;;;;;8.30;3.97;;;;;;;14.92;86.26;101147.16;3611911;39;20066;-66
2023/08/08 03:34:13;;;;;;;9.65;4.65;;;;;;;14.34;86.14;101048.66;3613455;39;20058;-67
2023/08/08 03:36:38;;;;;;;11.02;4.63;;;;;;;14.93;86.72;101150.72;3611174;39;20065;-66
2023/08/08 03:39:04;;;;;;;7.07;4.20;;;;;;;14.93;86.62;101153.41;3611914;39;20057;-66
2023/08/08 03:41:30;;;;;;;12.23;4.82;;;;;;;14.85;86.52;101144.03;3614267;39;20055;-66
2023/08/08 03:43:56;;;;;;;8.88;4.30;;;;;;;14.90;86.56;101154.50;3611771;39;20046;-67
2023/08/08 03:46:22;;;;;;;10.48;4.60;;;;;;;14.91;87.14;101155.41;3611933;39;20050;-67
2023/08/08 03:48:48;;;;;;;9.60;4.38;;;;;;;14.88;86.89;101152.91;3613824;39;20094;-66
2023/08/08 03:51:13;;;;;;;10.68;4.55;;;;;;;14.84;86.85;101146.84;3612533;39;20061;-67
2023/08/08 03:53:39;;;;;;;12.18;5.05;;;;;;;14.75;87.41;101139.44;3611491;39;20051;-66
2023/08/08 03:56:07;;;;;;;9.40;4.68;;;;;;;14.75;87.64;101139.44;3615921;39;20320;-66
2023/08/08 03:58:33;;;;;;;9.45;4.82;;;;;;;14.71;87.92;101132.50;3611446;39;20046;-66
2023/08/08 04:00:58;;;;;;;12.65;4.80;;;;;;;14.69;87.64;101151.56;3613624;39;20069;-66
2023/08/08 04:03:24;;;;;;;11.57;4.93;;;;;;;14.67;88.27;101144.53;3612121;39;20054;-66
2023/08/08 04:05:50;;;;;;;11.40;5.13;;;;;;;14.65;88.13;101141.94;3611375;39;20103;-67
2023/08/08 04:08:16;;;;;;;14.85;5.22;;;;;;;14.61;88.29;101141.28;3612735;39;20083;-66
2023/08/08 04:10:43;;;;;;;13.52;5.00;;;;;;;14.59;88.52;101140.56;3613084;39;20047;-65
2023/08/08 04:13:10;;;;;;;12.00;5.15;;;;;;;14.57;88.56;101136.25;3615500;39;20053;-66
2023/08/08 04:15:36;;;;;;;11.45;5.28;;;;;;;14.40;88.16;101123.94;3613059;39;20077;-66
2023/08/08 04:18:02;;;;;;;9.55;4.78;;;;;;;14.49;89.08;101147.56;3611897;39;20398;-67
2023/08/08 04:20:27;;;;;;;12.60;5.18;;;;;;;14.49;89.07;101144.00;3613517;39;20333;-67
2023/08/08 04:22:53;;;;;;;9.57;4.85;;;;;;;14.39;88.72;101135.69;3612049;39;20062;-67
2023/08/08 04:25:20;;;;;;;10.07;4.80;;;;;;;14.36;89.36;101130.50;3612593;39;20389;-66
2023/08/08 04:27:46;;;;;;;16.17;5.13;;;;;;;14.41;89.60;101139.16;3612984;39;20043;-66
2023/08/08 04:30:12;;;;;;;10.30;5.13;;;;;;;14.38;89.79;101142.09;3613302;39;20053;-66
2023/08/08 04:32:38;;;;;;;12.77;5.15;;;;;;;14.34;89.84;101136.06;3614199;39;20066;-67
2023/08/08 04:35:04;;;;;;;11.88;5.45;;;;;;;14.34;89.39;101141.47;3615853;39;21113;-67
2023/08/08 04:37:29;;;;;;;14.77;5.43;;;;;;;14.33;89.83;101139.72;3608235;39;20150;-66
2023/08/08 04:39:55;;;;;;;12.23;5.03;;;;;;;14.32;90.24;101140.69;3613582;39;20063;-67
2023/08/08 04:42:20;;;;;;;10.43;5.10;;;;;;;14.26;90.16;101142.97;3614212;39;20057;-66
2023/08/08 04:44:46;;;;;;;13.48;5.70;;;;;;;14.29;90.53;101150.88;3613699;39;20054;-66
2023/08/08 04:47:12;;;;;;;9.07;4.85;;;;;;;14.29;90.83;101148.16;3614728;39;20095;-67
2023/08/08 04:49:37;;;;;;;10.32;5.05;;;;;;;14.30;90.65;101149.88;3615792;39;20333;-66
2023/08/08 04:52:03;;;;;;;11.90;5.40;;;;;;;14.31;90.47;101147.09;3615129;39;20472;-67
2023/08/08 04:54:29;;;;;;;12.55;5.60;;;;;;;14.23;90.37;101132.38;3615390;39;20046;-67
2023/08/08 04:56:55;;;;;;;11.48;5.82;;;;;;;14.30;90.52;101149.88;3611202;39;20355;-67
2023/08/08 04:59:20;;;;;;;12.57;5.80;;;;;;;14.30;90.98;101144.47;3610571;39;20042;-67
2023/08/08 05:01:46;;;;;;;12.00;5.50;;;;;;;14.19;90.84;101126.34;3612932;39;20051;-67
2023/08/08 05:04:12;;;;;;;11.80;5.82;;;;;;;14.29;90.85;101142.75;3615174;39;20042;-66
2023/08/08 05:06:37;;;;;;;12.43;5.47;;;;;;;14.29;90.42;101148.16;3614567;39;20047;-66
2023/08/08 05:09:03;;;;;;;11.75;5.68;;;;;;;14.22;91.03;101136.06;3612996;39;20055;-66
2023/08/08 05:11:28;;;;;;;9.45;5.38;;;;;;;14.28;90.80;101141.91;3612375;39;20067;-67
2023/08/08 05:13:54;;;;;;;11.75;5.68;;;;;;;14.29;90.91;101142.75;3612109;39;20094;-67
2023/08/08 05:16:20;;;;;;;10.82;5.47;;;;;;;14.27;90.62;101145.59;3615738;39;20292;-66
2023/08/08 05:18:46;;;;;;;9.95;5.55;;;;;;;14.27;91.11;101139.28;3616025;39;20051;-66
2023/08/08 05:21:11;;;;;;;13.75;5.90;;;;;;;14.26;91.31;101140.28;3615765;39;20082;-67
2023/08/08 05:23:37;;;;;;;13.70;6.45;;;;;;;14.30;91.08;101141.78;3613372;39;20063;-66
2023/08/08 05:26:03;;;;;;;13.63;6.43;;;;;;;14.33;91.38;101144.25;3612209;39;20130;-66
2023/08/08 05:28:29;;;;;;;13.27;7.30;;;;;;;14.33;91.41;101141.56;3614560;39;20267;-67
2023/08/08 05:30:56;;;;;;;12.60;5.63;;;;;;;14.34;91.21;101135.19;3612210;39;20071;-66
2023/08/08 05:33:22;;;;;;;11.38;5.85;;;;;;;14.28;90.64;101132.94;3615814;39;20043;-66
2023/08/08 05:35:48;;;;;;;16.60;6.15;;;;;;;14.43;90.95;101148.06;3613170;39;20059;-66
2023/08/08 05:38:13;;;;;;;11.65;5.15;;;;;;;14.45;91.05;101153.34;3614163;39;20330;-66
2023/08/08 05:40:39;;;;;;;11.32;5.43;;;;;;;14.52;91.22;101150.09;3613397;39;20064;-66
2023/08/08 05:43:05;;;;;;;11.02;6.10;;;;;;;14.55;90.21;101154.41;3615457;39;20055;-66
2023/08/08 05:45:31;;;;;;;16.73;5.68;;;;;;;14.56;90.71;101146.19;3615580;39;20465;-66
2023/08/08 05:47:57;;;;;;;11.88;6.30;;;;;;;14.62;90.55;101156.56;3612100;39;20186;-66
2023/08/08 05:50:23;;;;;;;12.45;5.55;;;;;;;14.68;90.37;101151.66;3618661;39;20046;-66
2023/08/08 05:52:49;;;;;;;9.88;5.05;;;;;;;14.71;90.00;101155.00;3613222;39;20424;-66
2023/08/08 05:55:15;;;;;;;17.75;5.93;;;;;;;14.75;90.35;101158.38;3606400;39;20057;-66
2023/08/08 05:57:40;;;;;;;16.42;6.10;;;;;;;14.80;90.34;101142.66;3614358;39;20047;-66
2023/08/08 06:00:10;;;;;;;11.70;5.50;;;;;;;14.88;89.82;101151.06;3615675;39;20069;-66
2023/08/08 06:02:36;;;;;;;11.63;5.28;;;;;;;14.94;89.83;101150.63;3615669;39;20147;-66
2023/08/08 06:05:01;;;;;;;11.40;5.32;;;;;;;15.01;89.25;101151.88;3613887;39;20360;-66
2023/08/08 06:07:27;;;;;;;10.45;5.05;;;;;;;15.09;88.79;101156.69;3614883;39;20350;-66
2023/08/08 06:09:53;;;;;;;12.73;5.38;;;;;;;15.15;88.38;101158.09;3612902;39;20061;-66
2023/08/08 06:12:18;;;;;;;8.77;4.80;;;;;;;15.21;88.42;101163.03;3616233;39;20318;-66
2023/08/08 06:14:44;;;;;;;12.48;5.40;;;;;;;15.27;87.85;101162.56;3612628;39;20463;-66
2023/08/08 06:17:09;;;;;;;9.40;4.80;;;;;;;15.32;87.83;101161.25;3616429;39;20270;-66
2023/08/08 06:19:35;;;;;;;10.20;5.00;;;;;;;15.40;87.31;101159.78;3611600;39;20079;-67
2023/08/08 06:22:02;;;;;;;10.60;4.72;;;;;;;15.45;86.33;101166.59;3614157;39;20074;-66
2023/08/08 06:24:29;;;;;;;10.52;4.95;;;;;;;15.49;86.17;101161.78;3615768;39;20309;-67
2023/08/08 06:26:54;;;;;;;12.27;4.55;;;;;;;15.50;86.45;101160.78;3612966;39;20077;-67
2023/08/08 06:29:20;;;;;;;8.15;4.40;;;;;;;15.54;85.54;101171.28;3618649;39;20042;-66
2023/08/08 06:31:45;;;;;;;12.25;5.20;;;;;;;15.61;85.37;101171.69;3604717;39;20349;-66
2023/08/08 06:34:11;;;;;;;14.93;5.28;;;;;;;15.70;85.63;101178.28;3612786;39;20058;-66
2023/08/08 06:36:37;;;;;;;13.07;5.30;;;;;;;15.80;85.11;101173.84;3614820;39;20069;-66
2023/08/08 06:39:03;;;;;;;9.55;4.68;;;;;;;15.91;85.07;101171.16;3612074;39;20063;-66
2023/08/08 06:41:28;;;;;;;11.85;4.68;;;;;;;15.97;83.79;101162.53;3615227;39;20062;-66
2023/08/08 06:43:54;;;;;;;11.18;5.00;;;;;;;16.12;83.88;101167.75;3612520;39;20070;-67
2023/08/08 06:46:20;;;;;;;8.00;4.40;;;;;;;16.27;83.09;101165.63;3614629;39;20269;-66
2023/08/08 06:48:47;;;;;;;11.65;4.40;;;;;;;16.36;82.48;101157.59;3611812;39;20239;-66
2023/08/08 06:51:13;;;;;;;12.55;4.15;;;;;;;16.60;81.82;101162.91;3606025;39;20080;-66
2023/08/08 06:53:38;;;;;;;8.60;4.00;;;;;;;16.80;80.62;101169.44;3616453;39;20078;-66
2023/08/08 06:56:04;;;;;;;7.03;4.20;;;;;;;16.97;79.80;101161.72;3613833;39;20293;-66
2023/08/08 06:58:30;;;;;;;7.60;3.45;;;;;;;16.98;79.31;101147.19;3612779;39;20063;-66
2023/08/08 07:00:55;;;;;;;12.30;3.78;;;;;;;17.19;77.27;101156.25;3616282;39;20062;-66
2023/08/08 07:03:21;;;;;;;7.60;3.10;;;;;;;17.27;76.55;101137.41;3612266;39;20050;-66
2023/08/08 07:05:51;;;;;;;5.93;2.90;;;;;;;17.67;75.83;101173.94;3614836;39;20624;-66
2023/08/08 07:08:18;;;;;;;7.75;3.17;;;;;;;17.80;75.01;101170.03;3612744;39;20736;-66
2023/08/08 07:10:44;;;;;;;9.65;3.30;;;;;;;17.95;73.70;101165.13;3608795;39;20039;-66
2023/08/08 07:13:09;;;;;;;10.20;3.28;;;;;;;18.03;73.25;101178.91;3612263;39;20444;-66
2023/08/08 07:15:35;;;;;;;8.25;3.67;;;;;;;18.09;71.16;101177.50;3611882;39;20043;-66
2023/08/08 07:18:01;;;;;;;8.10;2.95;;;;;;;18.16;71.33;101178.69;3615743;39;20073;-66
2023/08/08 07:20:26;;;;;;;7.60;3.00;;;;;;;18.22;70.25;101180.88;3612543;39;20066;-66
2023/08/08 07:22:53;;;;;;;8.18;3.05;;;;;;;17.96;69.94;101130.63;3612714;39;20058;-66
2023/08/08 07:25:18;;;;;;;6.55;2.90;;;;;;;18.26;70.21;101176.00;3606757;39;20046;-66
2023/08/08 07:27:44;;;;;;;8.38;2.90;;;;;;;18.21;68.91;101181.88;3603383;39;20385;-65
2023/08/08 07:30:11;;;;;;;7.25;2.80;;;;;;;18.18;69.47;101182.16;3612883;39;20150;-65
2023/08/08 07:32:37;;;;;;;7.18;3.17;;;;;;;18.09;69.34;101178.38;3606112;39;20059;-66
2023/08/08 07:35:05;;;;;;;8.10;3.10;;;;;;;18.03;70.07;101176.19;3613548;39;20419;-66
2023/08/08 07:37:32;;;;;;;9.77;3.63;;;;;;;18.01;69.80;101175.44;3613988;39;20066;-66
2023/08/08 07:39:58;;;;;;;9.40;3.50;;;;;;;18.04;69.88;101179.75;3615837;39;20042;-65
2023/08/08 07:42:23;;;;;;;6.47;2.88;;;;;;;18.05;69.28;101167.91;3611508;39;20065;-66
2023/08/08 07:44:49;;;;;;;7.32;3.67;;;;;;;17.61;70.50;101086.47;3614763;39;20072;-66
2023/08/08 07:47:15;;;;;;;5.82;3.40;;;;;;;18.14;70.04;101169.81;3603815;39;20051;-65
2023/08/08 07:49:40;;;;;;;10.68;3.28;;;;;;;18.15;69.01;101171.53;3612388;39;20518;-66
2023/08/08 07:52:07;;;;;;;9.05;3.00;;;;;;;18.21;69.58;101171.00;3606855;39;20049;-65
2023/08/08 07:54:34;;;;;;;7.57;3.53;;;;;;;18.25;68.86;101183.31;3615019;39;20378;-66
2023/08/08 07:57:00;;;;;;;6.00;3.03;;;;;;;18.31;69.38;101180.06;3616730;39;20065;-65
2023/08/08 07:59:25;;;;;;;9.57;3.53;;;;;;;18.38;68.29;101187.66;3613840;39;20067;-66
2023/08/08 08:01:51;;;;;;;9.50;4.45;;;;;;;18.45;67.13;101175.22;3612158;39;20158;-66
2023/08/08 08:04:16;;;;;;;6.43;3.13;;;;;;;18.47;66.93;101181.41;3612891;39;20046;-66
2023/08/08 08:06:42;;;;;;;5.28;2.85;;;;;;;18.46;66.63;101180.56;3611532;39;20339;-66
2023/08/08 08:09:08;;;;;;;9.32;3.15;;;;;;;18.45;66.54;101183.41;3611930;39;20057;-65
2023/08/08 08:11:33;;;;;;;6.88;3.30;;;;;;;18.45;66.69;101188.84;3615362;39;20062;-64
2023/08/08 08:13:59;;;;;;;6.68;3.22;;;;;;;18.24;66.45;101151.66;3613927;39;20043;-66
2023/08/08 08:16:25;;;;;;;7.38;3.17;;;;;;;18.47;66.68;101189.59;3615226;39;20051;-66
2023/08/08 08:18:50;;;;;;;5.80;3.20;;;;;;;18.49;66.44;101174.84;3614401;39;20050;-66
2023/08/08 08:21:17;;;;;;;8.02;3.00;;;;;;;18.72;66.70;101171.91;3612760;39;20059;-65
2023/08/08 08:23:44;;;;;;;9.13;3.35;;;;;;;18.97;66.83;101176.84;3613908;39;20086;-66
2023/08/08 08:26:10;;;;;;;6.68;3.30;;;;;;;19.28;64.91;101189.50;3613904;39;20093;-66
2023/08/08 08:28:35;;;;;;;6.50;3.50;;;;;;;19.50;63.96;101191.94;3612280;39;20355;-66
2023/08/08 08:31:06;;;;;;;9.30;2.83;;;;;;;19.61;62.83;101178.16;3613822;39;20062;-66
2023/08/08 08:33:31;;;;;;;6.05;3.00;;;;;;;19.59;61.85;101191.06;3613583;39;20443;-66
2023/08/08 08:35:57;;;;;;;5.30;2.38;;;;;;;19.46;60.52;101185.06;3613741;39;20364;-65
2023/08/08 08:38:23;;;;;;;8.85;2.63;;;;;;;19.39;60.41;101189.38;3613554;39;20070;-65
2023/08/08 08:40:53;;;;;;;7.57;2.67;;;;;;;19.31;61.10;101178.31;3612170;39;20309;-65
2023/08/08 08:43:20;;;;;;;5.68;2.90;;;;;;;19.27;61.75;101171.44;3615124;39;20127;-65
2023/08/08 08:45:52;;;;;;;3.38;2.13;;;;;;;19.24;63.26;101176.16;3613345;39;20127;-65
2023/08/08 08:48:20;;;;;;;6.13;2.75;;;;;;;19.31;62.63;101186.50;3612596;39;21171;-64
2023/08/08 08:50:48;;;;;;;5.60;2.42;;;;;;;19.37;61.88;101186.78;3604436;39;20057;-65
2023/08/08 08:53:17;;;;;;;5.97;2.70;;;;;;;19.32;62.51;101160.97;3614212;39;20051;-65
2023/08/08 08:55:44;;;;;;;9.48;3.03;;;;;;;19.55;60.76;101183.34;3614901;39;20055;-65
2023/08/08 08:58:16;;;;;;;3.15;1.98;;;;;;;19.56;60.39;101185.06;3612583;39;20051;-65
2023/08/08 09:00:45;;;;;;;5.00;2.08;;;;;;;19.54;60.42;101196.13;3615454;39;20111;-65
2023/08/08 09:03:11;;;;;;;4.95;2.38;;;;;;;19.42;60.78;101189.09;3618567;39;20046;-65
2023/08/08 09:05:41;;;;;;;4.43;2.40;;;;;;;19.35;60.84;101190.66;3616247;39;20094;-65
2023/08/08 09:08:08;;;;;;;8.77;2.58;;;;;;;19.30;61.08;101192.94;3614072;39;20055;-64
2023/08/08 09:10:34;;;;;;;10.45;4.65;;;;;;;19.17;60.77;101185.06;3613857;39;20057;-65
2023/08/08 09:13:00;;;;;;;8.57;5.90;;;;;;;19.08;61.16;101192.22;3612998;39;20313;-65
2023/08/08 09:15:31;;;;;;;2.53;2.30;;;;;;;18.99;61.22;101193.03;3613730;39;20051;-65
2023/08/08 09:17:57;;;;;;;4.75;2.90;;;;;;;18.93;61.06;101193.59;3612779;39;20074;-65
2023/08/08 09:20:27;;;;;;;2.95;2.03;;;;;;;18.87;61.94;101194.16;3614153;39;20082;-65
2023/08/08 09:22:53;;;;;;;3.22;2.15;;;;;;;18.77;62.46;101195.03;3614032;39;20079;-65
2023/08/08 09:25:19;;;;;;;3.47;2.05;;;;;;;18.71;62.25;101186.50;3614555;39;20079;-65
2023/08/08 09:27:45;;;;;;;5.43;2.35;;;;;;;18.71;63.36;101194.66;3613617;39;20059;-65
2023/08/08 09:30:11;;;;;;;9.73;6.05;;;;;;;18.75;63.82;101191.56;3612669;39;20058;-65
2023/08/08 09:32:37;;;;;;;6.43;2.20;;;;;;;18.82;64.27;101191.03;3613390;39;20066;-64
2023/08/08 09:35:09;;;;;;;4.10;2.22;;;;;;;18.96;64.21;101186.00;3615242;39;20059;-64
2023/08/08 09:37:35;;;;;;;4.28;2.35;;;;;;;19.17;64.14;101188.63;3614225;39;20053;-65
2023/08/08 09:40:05;;;;;;;6.20;2.75;;;;;;;19.43;62.86;101198.97;3614039;39;20055;-64
2023/08/08 09:42:31;;;;;;;6.53;2.70;;;;;;;19.57;60.92;101204.00;3617702;39;20043;-64
2023/08/08 09:44:58;;;;;;;6.10;2.63;;;;;;;19.61;60.34;101202.72;3614848;39;20178;-64
2023/08/08 09:47:30;;;;;;;6.88;2.92;;;;;;;19.62;60.97;101182.59;3616584;39;20066;-64
2023/08/08 09:50:01;;;;;;;4.88;2.53;;;;;;;19.79;60.13;101196.53;3617159;39;20059;-65
2023/08/08 09:52:28;;;;;;;8.02;2.78;;;;;;;19.90;59.78;101199.97;3616206;39;20316;-64
2023/08/08 09:54:55;;;;;;;5.95;2.20;;;;;;;20.10;60.52;101199.94;3613949;39;20050;-65
2023/08/08 09:57:23;;;;;;;3.28;2.20;;;;;;;20.14;58.57;101169.47;3613043;39;20070;-64
2023/08/08 09:59:51;;;;;;;4.97;2.65;;;;;;;20.47;56.83;101191.75;3603885;39;20053;-65
2023/08/08 10:02:17;;;;;;;5.63;2.20;;;;;;;20.62;56.02;101195.75;3604655;39;20087;-64
2023/08/08 10:04:46;;;;;;;3.38;1.90;;;;;;;20.72;54.12;101192.97;3616815;39;20055;-64
2023/08/08 10:07:12;;;;;;;3.65;2.13;;;;;;;20.79;54.68;101174.09;3614611;39;20047;-65
2023/08/08 10:09:39;;;;;;;4.40;2.10;;;;;;;20.97;53.89;101202.31;3609627;39;20084;-65
2023/08/08 10:12:07;;;;;;;4.22;1.98;;;;;;;21.16;54.98;101187.66;3603478;39;20062;-65
2023/08/08 10:14:37;;;;;;;3.72;1.73;;;;;;;21.36;53.43;101198.50;3613661;39;20152;-65
2023/08/08 10:17:05;;;;;;;3.40;1.60;;;;;;;21.40;52.21;101203.47;3615376;39;20042;-65
2023/08/08 10:19:31;;;;;;;2.13;1.83;;;;;;;21.47;51.47;101190.91;3605241;39;20392;-65
2023/08/08 10:22:09;;;;;;;4.78;1.83;;;;;;;21.60;51.34;101184.16;3616130;39;20067;-65
2023/08/08 10:24:36;;;;;;;3.10;1.73;;;;;;;21.84;51.05;101187.09;3615890;39;20063;-65
2023/08/08 10:27:04;;;;;;;4.30;1.83;;;;;;;21.99;50.82;101184.66;3614382;39;20066;-66
2023/08/08 10:29:33;;;;;;;3.92;1.88;;;;;;;22.08;50.19;101193.78;3615164;39;20089;-66
2023/08/08 10:32:03;;;;;;;2.78;1.58;;;;;;;22.00;49.25;101176.25;3615897;39;20092;-65
2023/08/08 10:34:44;;;;;;;2.70;1.95;;;;;;;22.04;48.89;101187.75;3619272;39;20058;-65
2023/08/08 10:37:17;;;;;;;2.83;1.50;;;;;;;22.07;48.94;101200.25;3611992;39;20063;-65
2023/08/08 10:39:53;;;;;;;;;;;;;;;21.82;49.69;101191.91;3614352;39;20124;-65
2023/08/08 10:42:22;;;;;;;2.95;1.80;;;;;;;21.49;50.17;101207.16;3613619;39;20264;-65
2023/08/08 10:44:54;;;;;;;5.05;1.80;;;;;;;21.09;50.64;101202.94;3615621;39;20066;-65
2023/08/08 10:47:27;;;;;;;3.60;2.08;;;;;;;20.76;52.82;101201.72;3605300;39;20107;-65
2023/08/08 10:50:06;;;;;;;3.38;1.90;;;;;;;20.45;55.33;101204.69;3613995;39;20055;-65
2023/08/08 10:52:37;;;;;;;5.18;1.98;;;;;;;20.20;56.47;101203.50;3613672;39;20055;-65
2023/08/08 10:55:04;;;;;;;4.63;1.77;;;;;;;19.98;58.23;101198.38;3616881;39;20489;-64
2023/08/08 10:57:30;;;;;;;2.58;1.90;;;;;;;19.86;58.70;101198.56;3612399;39;20073;-65
2023/08/08 11:00:17;;;;;;;3.67;2.00;;;;;;;19.77;58.31;101193.13;3613302;39;20188;-65
2023/08/08 11:02:44;;;;;;;4.47;2.08;;;;;;;19.92;58.35;101183.47;3613852;39;20102;-66
2023/08/08 11:05:10;;;;;;;3.53;1.48;;;;;;;20.32;58.08;101183.19;3612167;39;20059;-65
2023/08/08 11:07:37;;;;;;;3.40;2.17;;;;;;;20.78;55.77;101183.31;3616808;39;20059;-65
2023/08/08 11:10:04;;;;;;;2.83;1.75;;;;;;;21.26;55.15;101171.19;3613665;39;20065;-65
2023/08/08 11:12:29;;;;;;;3.42;1.67;;;;;;;21.49;53.05;101172.44;3614947;39;20089;-66
2023/08/08 11:14:55;;;;;;;3.25;1.80;;;;;;;21.62;50.45;101160.25;3615795;39;20395;-65
2023/08/08 11:17:20;;;;;;;3.00;1.80;;;;;;;21.78;50.40;101169.44;3602191;39;20070;-65
2023/08/08 11:19:46;;;;;;;2.38;1.02;;;;;;;21.98;48.94;101167.38;3616921;39;20043;-66
2023/08/08 11:22:12;;;;;;;2.92;1.52;;;;;;;22.22;48.76;101132.97;3614202;39;20067;-65